createdAt,value
2016-09-10T00:00:12.230Z,1001.51
2016-09-10T00:01:12.251Z,1001.5
2016-09-10T00:02:12.271Z,1001.52
2016-09-10T00:03:12.295Z,1001.53
2016-09-10T00:04:12.313Z,1001.55
2016-09-10T00:05:12.336Z,1001.55
2016-09-10T00:06:12.359Z,1001.51
2016-09-10T00:07:12.379Z,1001.47
2016-09-10T00:08:12.401Z,1001.46
2016-09-10T00:09:12.426Z,1001.5
2016-09-10T00:10:12.442Z,1001.54
2016-09-10T00:11:12.467Z,1001.52
2016-09-10T00:12:12.484Z,1001.53
2016-09-10T00:13:12.508Z,1001.57
2016-09-10T00:14:12.547Z,1001.52
2016-09-10T00:15:12.547Z,1001.55
2016-09-10T00:16:12.613Z,1001.55
2016-09-10T00:17:12.597Z,1001.53
2016-09-10T00:18:12.612Z,1001.54
2016-09-10T00:19:12.650Z,1001.53
2016-09-10T00:20:12.660Z,1001.56
2016-09-10T00:21:12.697Z,1001.54
2016-09-10T00:22:12.716Z,1001.5
2016-09-10T00:23:12.723Z,1001.53
2016-09-10T00:24:12.747Z,1001.56
2016-09-10T00:25:12.763Z,1001.53
2016-09-10T00:26:12.785Z,1001.55
2016-09-10T00:27:12.803Z,1001.56
2016-09-10T00:28:12.823Z,1001.56
2016-09-10T00:29:12.843Z,1001.54
2016-09-10T00:30:12.866Z,1001.52
2016-09-10T00:31:12.890Z,1001.54
2016-09-10T00:32:12.909Z,1001.55
2016-09-10T00:33:12.933Z,1001.56
2016-09-10T00:34:12.954Z,1001.57
2016-09-10T00:35:12.974Z,1001.6
2016-09-10T00:36:12.996Z,1001.64
2016-09-10T00:37:13.017Z,1001.59
2016-09-10T00:38:13.039Z,1001.58
2016-09-10T00:39:13.056Z,1001.6
2016-09-10T00:40:13.081Z,1001.58
2016-09-10T00:41:13.101Z,1001.59
2016-09-10T00:42:13.122Z,1001.59
2016-09-10T00:43:13.143Z,1001.58
2016-09-10T00:44:13.166Z,1001.59
2016-09-10T00:45:13.186Z,1001.58
2016-09-10T00:46:13.206Z,1001.52
2016-09-10T00:47:13.227Z,1001.55
2016-09-10T00:48:13.248Z,1001.56
2016-09-10T00:49:13.268Z,1001.57
2016-09-10T00:50:13.290Z,1001.56
2016-09-10T00:51:13.313Z,1001.55
2016-09-10T00:52:13.413Z,1001.54
2016-09-10T00:53:13.352Z,1001.58
2016-09-10T00:54:13.373Z,1001.54
2016-09-10T00:55:13.393Z,1001.56
2016-09-10T00:56:13.419Z,1001.54
2016-09-10T00:57:13.439Z,1001.6
2016-09-10T00:58:13.465Z,1001.54
2016-09-10T00:59:13.478Z,1001.6
2016-09-10T01:00:13.499Z,1001.59
2016-09-10T01:01:13.523Z,1001.61
2016-09-10T01:02:13.544Z,1001.59
2016-09-10T01:03:13.563Z,1001.6
2016-09-10T01:04:13.585Z,1001.56
2016-09-10T01:05:13.606Z,1001.59
2016-09-10T01:06:13.628Z,1001.56
2016-09-10T01:07:13.668Z,1001.58
2016-09-10T01:08:13.685Z,1001.55
2016-09-10T01:09:13.696Z,1001.57
2016-09-10T01:10:13.710Z,1001.53
2016-09-10T01:11:13.735Z,1001.51
2016-09-10T01:12:13.756Z,1001.49
2016-09-10T01:13:13.782Z,1001.49
2016-09-10T01:14:13.795Z,1001.52
2016-09-10T01:15:13.816Z,1001.54
2016-09-10T01:16:13.838Z,1001.53
2016-09-10T01:17:13.881Z,1001.54
2016-09-10T01:18:13.881Z,1001.52
2016-09-10T01:19:13.913Z,1001.55
2016-09-10T01:20:13.922Z,1001.53
2016-09-10T01:21:13.953Z,1001.56
2016-09-10T01:22:13.963Z,1001.57
2016-09-10T01:23:13.983Z,1001.53
2016-09-10T01:24:14.014Z,1001.56
2016-09-10T01:25:14.039Z,1001.55
2016-09-10T01:26:14.060Z,1001.55
2016-09-10T01:27:14.076Z,1001.52
2016-09-10T01:28:14.093Z,1001.57
2016-09-10T01:29:14.112Z,1001.54
2016-09-10T01:30:14.138Z,1001.54
2016-09-10T01:31:14.162Z,1001.52
2016-09-10T01:32:14.177Z,1001.54
2016-09-10T01:33:14.203Z,1001.6
2016-09-10T01:34:14.217Z,1001.59
2016-09-10T01:35:14.241Z,1001.57
2016-09-10T01:36:14.260Z,1001.53
2016-09-10T01:37:14.279Z,1001.54
2016-09-10T01:38:14.302Z,1001.53
2016-09-10T01:39:14.328Z,1001.56
2016-09-10T01:40:14.348Z,1001.52
2016-09-10T01:41:14.368Z,1001.5
2016-09-10T01:42:14.389Z,1001.47
2016-09-10T01:43:14.413Z,1001.47
2016-09-10T01:44:14.430Z,1001.5
2016-09-10T01:45:14.449Z,1001.49
2016-09-10T01:46:14.482Z,1001.48
2016-09-10T01:47:14.647Z,1001.45
2016-09-10T01:48:14.518Z,1001.46
2016-09-10T01:49:14.532Z,1001.47
2016-09-10T01:50:14.554Z,1001.46
2016-09-10T01:51:14.580Z,1001.41
2016-09-10T01:52:14.609Z,1001.42
2016-09-10T01:53:14.615Z,1001.42
2016-09-10T01:54:14.640Z,1001.39
2016-09-10T01:55:14.665Z,1001.41
2016-09-10T01:56:14.817Z,1001.39
2016-09-10T01:57:14.706Z,1001.35
2016-09-10T01:58:14.735Z,1001.37
2016-09-10T01:59:14.753Z,1001.36
2016-09-10T02:00:14.770Z,1001.31
2016-09-10T02:01:14.801Z,1001.33
2016-09-10T02:02:14.811Z,1001.33
2016-09-10T02:03:14.838Z,1001.34
2016-09-10T02:04:14.854Z,1001.34
2016-09-10T02:05:14.873Z,1001.31
2016-09-10T02:06:14.892Z,1001.34
2016-09-10T02:07:14.915Z,1001.32
2016-09-10T02:08:14.937Z,1001.33
2016-09-10T02:09:14.966Z,1001.3
2016-09-10T02:10:14.998Z,1001.31
2016-09-10T02:11:15.001Z,1001.35
2016-09-10T02:12:15.016Z,1001.33
2016-09-10T02:13:15.046Z,1001.3
2016-09-10T02:14:15.064Z,1001.32
2016-09-10T02:15:15.085Z,1001.34
2016-09-10T02:16:15.103Z,1001.31
2016-09-10T02:17:15.127Z,1001.32
2016-09-10T02:18:15.149Z,1001.3
2016-09-10T02:19:15.168Z,1001.31
2016-09-10T02:20:15.188Z,1001.32
2016-09-10T02:21:15.210Z,1001.33
2016-09-10T02:22:15.230Z,1001.3
2016-09-10T02:23:15.248Z,1001.27
2016-09-10T02:24:15.299Z,1001.32
2016-09-10T02:25:15.291Z,1001.34
2016-09-10T02:26:15.312Z,1001.31
2016-09-10T02:27:15.343Z,1001.3
2016-09-10T02:28:15.353Z,1001.3
2016-09-10T02:29:15.375Z,1001.27
2016-09-10T02:30:15.396Z,1001.3
2016-09-10T02:31:15.420Z,1001.27
2016-09-10T02:32:15.449Z,1001.31
2016-09-10T02:33:15.463Z,1001.28
2016-09-10T02:34:15.480Z,1001.29
2016-09-10T02:35:15.501Z,1001.33
2016-09-10T02:36:15.529Z,1001.3
2016-09-10T02:37:15.554Z,1001.29
2016-09-10T02:38:15.569Z,1001.3
2016-09-10T02:39:15.651Z,1001.29
2016-09-10T02:40:15.609Z,1001.27
2016-09-10T02:41:15.631Z,1001.27
2016-09-10T02:42:15.659Z,1001.25
2016-09-10T02:43:15.675Z,1001.26
2016-09-10T02:44:15.695Z,1001.31
2016-09-10T02:45:15.717Z,1001.24
2016-09-10T02:46:15.736Z,1001.25
2016-09-10T02:47:15.757Z,1001.25
2016-09-10T02:48:15.780Z,1001.25
2016-09-10T02:49:15.795Z,1001.22
2016-09-10T02:50:15.869Z,1001.19
2016-09-10T02:51:16.875Z,1001.21
2016-09-10T02:52:15.862Z,1001.19
2016-09-10T02:53:15.895Z,1001.19
2016-09-10T02:54:15.904Z,1001.19
2016-09-10T02:55:15.929Z,1001.19
2016-09-10T02:56:15.983Z,1001.2
2016-09-10T02:57:15.974Z,1001.22
2016-09-10T02:58:15.989Z,1001.19
2016-09-10T02:59:16.021Z,1001.16
2016-09-10T03:00:16.031Z,1001.14
2016-09-10T03:01:16.053Z,1001.19
2016-09-10T03:02:16.079Z,1001.17
2016-09-10T03:03:16.101Z,1001.14
2016-09-10T03:04:16.116Z,1001.14
2016-09-10T03:05:16.138Z,1001.13
2016-09-10T03:06:16.172Z,1001.12
2016-09-10T03:07:16.182Z,1001.09
2016-09-10T03:08:16.204Z,1001.08
2016-09-10T03:09:16.224Z,1001.1
2016-09-10T03:10:16.240Z,1001.07
2016-09-10T03:11:16.291Z,1001.05
2016-09-10T03:12:16.284Z,1001.07
2016-09-10T03:13:16.306Z,1001.02
2016-09-10T03:14:16.325Z,1001.03
2016-09-10T03:15:16.347Z,1001.05
2016-09-10T03:16:16.368Z,1001.05
2016-09-10T03:17:16.391Z,1001.06
2016-09-10T03:18:16.409Z,1001.04
2016-09-10T03:19:16.434Z,1001.11
2016-09-10T03:20:16.457Z,1001.08
2016-09-10T03:21:16.483Z,1001.08
2016-09-10T03:22:16.504Z,1001.06
2016-09-10T03:23:16.517Z,1001.05
2016-09-10T03:24:16.539Z,1001.06
2016-09-10T03:25:16.564Z,1001.05
2016-09-10T03:26:16.587Z,1001.06
2016-09-10T03:27:16.599Z,1001.06
2016-09-10T03:28:16.619Z,1001.04
2016-09-10T03:29:16.689Z,1001.07
2016-09-10T03:30:16.661Z,1001.05
2016-09-10T03:31:16.681Z,1001.08
2016-09-10T03:32:16.704Z,1001.06
2016-09-10T03:33:16.725Z,1001.05
2016-09-10T03:34:16.743Z,1001.1
2016-09-10T03:35:16.768Z,1001.08
2016-09-10T03:36:16.790Z,1001.06
2016-09-10T03:37:16.817Z,1001.09
2016-09-10T03:38:16.835Z,1001.03
2016-09-10T03:39:16.881Z,1001.04
2016-09-10T03:40:16.872Z,1001.07
2016-09-10T03:41:16.891Z,1001.03
2016-09-10T03:42:16.922Z,1001.03
2016-09-10T03:43:16.935Z,1001.03
2016-09-10T03:44:16.955Z,1000.97
2016-09-10T03:45:16.983Z,1000.99
2016-09-10T03:46:17.009Z,1001
2016-09-10T03:47:17.016Z,1001.03
2016-09-10T03:48:17.040Z,1001.01
2016-09-10T03:49:17.059Z,1001.01
2016-09-10T03:50:17.078Z,1001.02
2016-09-10T03:51:17.100Z,1000.99
2016-09-10T03:52:17.123Z,1001
2016-09-10T03:53:17.141Z,1001
2016-09-10T03:54:17.162Z,1001
2016-09-10T03:55:17.183Z,1000.98
2016-09-10T03:56:17.202Z,1001
2016-09-10T03:57:17.224Z,1000.98
2016-09-10T03:58:17.240Z,1001.03
2016-09-10T03:59:17.264Z,1000.99
2016-09-10T04:00:17.289Z,1001.03
2016-09-10T04:01:17.302Z,1000.99
2016-09-10T04:02:17.323Z,1001
2016-09-10T04:03:17.348Z,1001.04
2016-09-10T04:04:17.369Z,1001.05
2016-09-10T04:05:17.386Z,1001.02
2016-09-10T04:06:17.448Z,1000.99
2016-09-10T04:07:17.431Z,1001
2016-09-10T04:08:17.452Z,1001.03
2016-09-10T04:09:17.472Z,1001.02
2016-09-10T04:10:17.494Z,1001.01
2016-09-10T04:11:17.512Z,1001.03
2016-09-10T04:12:17.532Z,1001.06
2016-09-10T04:13:17.554Z,1001.05
2016-09-10T04:14:17.579Z,1001.05
2016-09-10T04:15:17.598Z,1001.03
2016-09-10T04:16:17.616Z,1001.02
2016-09-10T04:17:17.642Z,1001.01
2016-09-10T04:18:17.662Z,1001.03
2016-09-10T04:19:17.677Z,1001.03
2016-09-10T04:20:17.717Z,1001.02
2016-09-10T04:21:17.719Z,1001.04
2016-09-10T04:22:17.748Z,1001.01
2016-09-10T04:23:17.773Z,1001.02
2016-09-10T04:24:17.782Z,1000.99
2016-09-10T04:25:17.804Z,1001.02
2016-09-10T04:26:17.831Z,1001.01
2016-09-10T04:27:17.845Z,1001.01
2016-09-10T04:28:17.865Z,1001.01
2016-09-10T04:29:17.887Z,1001
2016-09-10T04:30:17.907Z,1001.02
2016-09-10T04:31:17.928Z,1001.03
2016-09-10T04:32:17.948Z,1001.04
2016-09-10T04:33:17.966Z,1001.04
2016-09-10T04:34:17.987Z,1001.02
2016-09-10T04:35:18.045Z,1001.02
2016-09-10T04:36:18.048Z,1001
2016-09-10T04:37:18.054Z,1001.02
2016-09-10T04:38:18.074Z,1001.06
2016-09-10T04:39:18.094Z,1001.01
2016-09-10T04:40:18.117Z,1001.04
2016-09-10T04:41:18.133Z,1001.05
2016-09-10T04:42:18.152Z,1001.05
2016-09-10T04:43:18.173Z,1001.06
2016-09-10T04:44:18.194Z,1001.04
2016-09-10T04:45:18.220Z,1001.04
2016-09-10T04:46:18.234Z,1001.07
2016-09-10T04:47:18.862Z,1001.08
2016-09-10T04:48:18.334Z,1001.08
2016-09-10T04:49:18.305Z,1001.08
2016-09-10T04:50:18.319Z,1001.08
2016-09-10T04:51:18.339Z,1001.09
2016-09-10T04:52:18.361Z,1001.09
2016-09-10T04:53:18.383Z,1001.1
2016-09-10T04:54:18.403Z,1001.11
2016-09-10T04:55:18.425Z,1001.13
2016-09-10T04:56:18.446Z,1001.15
2016-09-10T04:57:18.471Z,1001.18
2016-09-10T04:58:18.488Z,1001.2
2016-09-10T04:59:18.507Z,1001.19
2016-09-10T05:00:18.532Z,1001.2
2016-09-10T05:01:18.548Z,1001.17
2016-09-10T05:02:18.569Z,1001.18
2016-09-10T05:03:18.589Z,1001.19
2016-09-10T05:04:18.612Z,1001.23
2016-09-10T05:05:18.629Z,1001.21
2016-09-10T05:06:18.662Z,1001.17
2016-09-10T05:07:18.677Z,1001.24
2016-09-10T05:08:18.690Z,1001.22
2016-09-10T05:09:18.713Z,1001.25
2016-09-10T05:10:18.734Z,1001.26
2016-09-10T05:11:18.759Z,1001.26
2016-09-10T05:12:18.776Z,1001.3
2016-09-10T05:13:18.861Z,1001.28
2016-09-10T05:14:18.814Z,1001.3
2016-09-10T05:15:18.936Z,1001.28
2016-09-10T05:16:18.933Z,1001.3
2016-09-10T05:17:18.891Z,1001.27
2016-09-10T05:18:18.904Z,1001.31
2016-09-10T05:19:18.918Z,1001.3
2016-09-10T05:20:18.942Z,1001.29
2016-09-10T05:21:18.960Z,1001.32
2016-09-10T05:22:19.044Z,1001.29
2016-09-10T05:23:19.002Z,1001.34
2016-09-10T05:24:19.083Z,1001.36
2016-09-10T05:25:19.044Z,1001.38
2016-09-10T05:26:19.064Z,1001.36
2016-09-10T05:27:19.080Z,1001.37
2016-09-10T05:28:19.115Z,1001.35
2016-09-10T05:29:19.127Z,1001.36
2016-09-10T05:30:19.189Z,1001.33
2016-09-10T05:31:19.169Z,1001.3
2016-09-10T05:32:19.188Z,1001.35
2016-09-10T05:33:19.213Z,1001.35
2016-09-10T05:34:19.231Z,1001.35
2016-09-10T05:35:19.255Z,1001.33
2016-09-10T05:36:19.276Z,1001.34
2016-09-10T05:37:19.293Z,1001.33
2016-09-10T05:38:19.310Z,1001.33
2016-09-10T05:39:19.333Z,1001.32
2016-09-10T05:40:19.358Z,1001.3
2016-09-10T05:41:19.429Z,1001.31
2016-09-10T05:42:19.403Z,1001.3
2016-09-10T05:43:19.424Z,1001.28
2016-09-10T05:44:19.452Z,1001.27
2016-09-10T05:45:19.470Z,1001.26
2016-09-10T05:46:19.480Z,1001.29
2016-09-10T05:47:19.514Z,1001.28
2016-09-10T05:48:19.521Z,1001.29
2016-09-10T05:49:19.540Z,1001.28
2016-09-10T05:50:19.562Z,1001.29
2016-09-10T05:51:19.585Z,1001.32
2016-09-10T05:52:19.605Z,1001.32
2016-09-10T05:53:19.627Z,1001.3
2016-09-10T05:54:19.645Z,1001.26
2016-09-10T05:55:19.668Z,1001.29
2016-09-10T05:56:19.691Z,1001.26
2016-09-10T05:57:19.748Z,1001.3
2016-09-10T05:58:19.733Z,1001.24
2016-09-10T05:59:19.754Z,1001.29
2016-09-10T06:00:19.783Z,1001.3
2016-09-10T06:01:19.794Z,1001.28
2016-09-10T06:02:19.817Z,1001.28
2016-09-10T06:03:19.838Z,1001.27
2016-09-10T06:04:19.861Z,1001.27
2016-09-10T06:05:19.879Z,1001.27
2016-09-10T06:06:19.904Z,1001.27
2016-09-10T06:07:19.920Z,1001.32
2016-09-10T06:08:19.944Z,1001.32
2016-09-10T06:09:19.966Z,1001.3
2016-09-10T06:10:19.999Z,1001.27
2016-09-10T06:11:20.010Z,1001.3
2016-09-10T06:12:20.033Z,1001.29
2016-09-10T06:13:20.057Z,1001.28
2016-09-10T06:14:20.074Z,1001.27
2016-09-10T06:15:20.093Z,1001.28
2016-09-10T06:16:20.114Z,1001.26
2016-09-10T06:17:20.146Z,1001.27
2016-09-10T06:18:20.158Z,1001.29
2016-09-10T06:19:20.177Z,1001.29
2016-09-10T06:20:20.204Z,1001.26
2016-09-10T06:21:20.222Z,1001.29
2016-09-10T06:22:20.242Z,1001.3
2016-09-10T06:23:20.264Z,1001.31
2016-09-10T06:24:20.288Z,1001.36
2016-09-10T06:25:20.307Z,1001.33
2016-09-10T06:26:20.334Z,1001.34
2016-09-10T06:27:20.353Z,1001.38
2016-09-10T06:28:20.379Z,1001.33
2016-09-10T06:29:20.395Z,1001.38
2016-09-10T06:30:20.430Z,1001.36
2016-09-10T06:31:20.448Z,1001.33
2016-09-10T06:32:20.467Z,1001.35
2016-09-10T06:33:20.488Z,1001.33
2016-09-10T06:34:20.506Z,1001.33
2016-09-10T06:35:20.531Z,1001.3
2016-09-10T06:36:20.553Z,1001.29
2016-09-10T06:37:20.577Z,1001.29
2016-09-10T06:38:20.595Z,1001.25
2016-09-10T06:39:20.617Z,1001.28
2016-09-10T06:40:20.647Z,1001.26
2016-09-10T06:41:20.661Z,1001.22
2016-09-10T06:42:20.684Z,1001.23
2016-09-10T06:43:20.709Z,1001.24
2016-09-10T06:44:20.727Z,1001.25
2016-09-10T06:45:20.752Z,1001.25
2016-09-10T06:46:20.772Z,1001.28
2016-09-10T06:47:20.800Z,1001.27
2016-09-10T06:48:20.818Z,1001.26
2016-09-10T06:49:20.846Z,1001.24
2016-09-10T06:50:20.860Z,1001.26
2016-09-10T06:51:20.883Z,1001.28
2016-09-10T06:52:20.911Z,1001.3
2016-09-10T06:53:20.932Z,1001.28
2016-09-10T06:54:20.960Z,1001.23
2016-09-10T06:55:20.977Z,1001.25
2016-09-10T06:56:21.004Z,1001.22
2016-09-10T06:57:21.023Z,1001.23
2016-09-10T06:58:21.196Z,1001.19
2016-09-10T06:59:21.065Z,1001.18
2016-09-10T07:00:21.099Z,1001.19
2016-09-10T07:01:21.116Z,1001.2
2016-09-10T07:02:21.137Z,1001.2
2016-09-10T07:03:21.163Z,1001.21
2016-09-10T07:04:21.195Z,1001.21
2016-09-10T07:05:21.217Z,1001.25
2016-09-10T07:06:21.228Z,1001.21
2016-09-10T07:07:21.257Z,1001.23
2016-09-10T07:08:21.273Z,1001.21
2016-09-10T07:09:21.294Z,1001.17
2016-09-10T07:10:21.324Z,1001.17
2016-09-10T07:11:21.342Z,1001.19
2016-09-10T07:12:21.368Z,1001.19
2016-09-10T07:13:21.388Z,1001.18
2016-09-10T07:14:21.408Z,1001.2
2016-09-10T07:15:21.429Z,1001.21
2016-09-10T07:16:21.454Z,1001.24
2016-09-10T07:17:21.484Z,1001.19
2016-09-10T07:18:21.500Z,1001.2
2016-09-10T07:19:21.527Z,1001.21
2016-09-10T07:20:21.557Z,1001.22
2016-09-10T07:21:21.570Z,1001.21
2016-09-10T07:22:21.596Z,1001.19
2016-09-10T07:23:21.621Z,1001.22
2016-09-10T07:24:21.686Z,1001.23
2016-09-10T07:25:21.673Z,1001.22
2016-09-10T07:26:21.691Z,1001.24
2016-09-10T07:27:21.715Z,1001.27
2016-09-10T07:28:21.738Z,1001.28
2016-09-10T07:29:21.760Z,1001.27
2016-09-10T07:30:21.785Z,1001.25
2016-09-10T07:31:21.912Z,1001.22
2016-09-10T07:32:21.831Z,1001.28
2016-09-10T07:33:21.853Z,1001.26
2016-09-10T07:34:21.881Z,1001.28
2016-09-10T07:35:21.897Z,1001.29
2016-09-10T07:36:21.924Z,1001.29
2016-09-10T07:37:21.947Z,1001.26
2016-09-10T07:38:21.972Z,1001.3
2016-09-10T07:39:21.993Z,1001.31
2016-09-10T07:40:22.052Z,1001.32
2016-09-10T07:41:22.042Z,1001.3
2016-09-10T07:42:22.066Z,1001.32
2016-09-10T07:43:22.087Z,1001.35
2016-09-10T07:44:22.112Z,1001.34
2016-09-10T07:45:22.137Z,1001.34
2016-09-10T07:46:22.160Z,1001.34
2016-09-10T07:47:22.181Z,1001.32
2016-09-10T07:48:22.204Z,1001.35
2016-09-10T07:49:22.261Z,1001.33
2016-09-10T07:50:22.257Z,1001.32
2016-09-10T07:51:22.281Z,1001.31
2016-09-10T07:52:22.299Z,1001.36
2016-09-10T07:53:22.328Z,1001.33
2016-09-10T07:54:22.352Z,1001.34
2016-09-10T07:55:22.373Z,1001.33
2016-09-10T07:56:22.399Z,1001.32
2016-09-10T07:58:22.443Z,1001.32
2016-09-10T07:59:22.461Z,1001.31
2016-09-10T08:00:22.491Z,1001.31
2016-09-10T08:01:22.514Z,1001.31
2016-09-10T08:02:22.567Z,1001.29
2016-09-10T08:03:22.553Z,1001.34
2016-09-10T08:04:22.585Z,1001.34
2016-09-10T08:06:22.633Z,1001.32
2016-09-10T08:08:22.697Z,1001.32
2016-09-10T08:10:22.729Z,1001.34
2016-09-10T08:14:22.824Z,1001.31
2016-09-10T08:15:22.850Z,1001.33
2016-09-10T08:16:22.886Z,1001.31
2016-09-10T08:17:22.897Z,1001.31
2016-09-10T08:18:22.917Z,1001.33
2016-09-10T08:19:22.945Z,1001.31
2016-09-10T08:20:22.968Z,1001.3
2016-09-10T08:21:22.992Z,1001.29
2016-09-10T08:22:23.014Z,1001.32
2016-09-10T08:23:23.042Z,1001.32
2016-09-10T08:24:23.061Z,1001.29
2016-09-10T08:25:23.085Z,1001.28
2016-09-10T08:26:23.130Z,1001.29
2016-09-10T08:27:23.138Z,1001.29
2016-09-10T08:28:23.160Z,1001.28
2016-09-10T08:29:23.185Z,1001.32
2016-09-10T08:30:23.275Z,1001.32
2016-09-10T08:31:23.235Z,1001.34
2016-09-10T08:32:23.295Z,1001.31
2016-09-10T08:33:23.282Z,1001.34
2016-09-10T08:34:23.309Z,1001.31
2016-09-10T08:35:23.331Z,1001.34
2016-09-10T08:36:23.375Z,1001.32
2016-09-10T08:37:23.378Z,1001.34
2016-09-10T08:38:23.458Z,1001.35
2016-09-10T08:39:23.432Z,1001.36
2016-09-10T08:40:23.467Z,1001.39
2016-09-10T08:41:23.482Z,1001.39
2016-09-10T08:42:23.506Z,1001.36
2016-09-10T08:43:23.529Z,1001.37
2016-09-10T08:44:23.554Z,1001.35
2016-09-10T08:45:23.580Z,1001.33
2016-09-10T08:46:23.599Z,1001.31
2016-09-10T08:47:23.636Z,1001.3
2016-09-10T08:48:23.651Z,1001.3
2016-09-10T08:49:23.686Z,1001.25
2016-09-10T08:50:23.700Z,1001.28
2016-09-10T08:51:23.726Z,1001.26
2016-09-10T08:52:23.749Z,1001.24
2016-09-10T08:53:23.773Z,1001.21
2016-09-10T08:54:23.800Z,1001.15
2016-09-10T08:55:23.822Z,1001.16
2016-09-10T08:56:23.849Z,1001.14
2016-09-10T08:57:23.874Z,1001.11
2016-09-10T08:58:23.896Z,1001.11
2016-09-10T08:59:23.923Z,1001.09
2016-09-10T09:00:23.945Z,1001.1
2016-09-10T09:01:23.972Z,1001.09
2016-09-10T09:02:23.998Z,1001.07
2016-09-10T09:03:24.020Z,1001.07
2016-09-10T09:04:24.144Z,1001.07
2016-09-10T09:05:24.073Z,1001.03
2016-09-10T09:06:24.098Z,1001.08
2016-09-10T09:07:24.122Z,1001.05
2016-09-10T09:08:24.146Z,1001.1
2016-09-10T09:09:24.172Z,1001.07
2016-09-10T09:10:24.194Z,1001.09
2016-09-10T09:11:24.224Z,1001.05
2016-09-10T09:12:24.335Z,1001.04
2016-09-10T09:13:24.269Z,1001.03
2016-09-10T09:14:24.295Z,1001.02
2016-09-10T09:15:24.318Z,1001.02
2016-09-10T09:16:24.341Z,1001.04
2016-09-10T09:17:24.377Z,1000.99
2016-09-10T09:18:24.398Z,1000.99
2016-09-10T09:19:24.420Z,1000.96
2016-09-10T09:20:24.443Z,1000.95
2016-09-10T09:21:24.471Z,1000.99
2016-09-10T09:22:24.497Z,1000.97
2016-09-10T09:23:24.521Z,1000.94
2016-09-10T09:24:24.574Z,1000.95
2016-09-10T09:25:24.574Z,1000.92
2016-09-10T09:26:24.610Z,1000.9
2016-09-10T09:27:24.630Z,1000.9
2016-09-10T09:28:24.642Z,1000.93
2016-09-10T09:29:24.675Z,1000.92
2016-09-10T09:30:24.693Z,1000.91
2016-09-10T09:31:24.724Z,1000.89
2016-09-10T09:32:24.762Z,1000.87
2016-09-10T09:33:24.774Z,1000.83
2016-09-10T09:34:24.798Z,1000.85
2016-09-10T09:35:24.829Z,1000.86
2016-09-10T09:36:24.847Z,1000.82
2016-09-10T09:37:24.874Z,1000.82
2016-09-10T09:38:24.905Z,1000.8
2016-09-10T09:39:24.931Z,1000.82
2016-09-10T09:40:24.953Z,1000.77
2016-09-10T09:41:24.979Z,1000.78
